Kezdőlap
METAR-TAF:

METAR-TAF

Repülőterek :

Wrocław, Lengyelország

földrajzi szélesség: 51-06N, földrajzi hosszúság: 016-53E, magasság: 120 m

Jelenlegi meteorológiai megfigyelések

A jelentés 34 perccel ezelõtt készült, 19:30 UTC
Nyugati szél 6 kt
Hőmérséklet 7°C
Páratartalom 70%
Légköri nyomás 1028 hPa
Látótávolság 10 km, vagy több
felhőtlen 1500 m magasságban, és nincs gomolyfelhõ

METAR: EPWR 201930Z 27006KT CAVOK 07/02 Q1028

Idő: 22:04 (20:04 UTC)

Előrejelzés

A jelentés 2 órával és 34 perccel ezelõtt készült, 17:30 UTC
Az előrejelzés 20-én 18 óra UTC és 21-én 18 óra UTC között érvényes
Nyugat-északnyugati szél 5 kt
Látótávolság 10 km, vagy több
Szakadozott felhőzet 4000 lábon
Valószínűség 40%
21-én 01 óra UTC és 21-én 06 óra UTC között
Látótávolság: 3000 m
Szakadozott felhőzet 400 lábon
Párásság

TAF: EPWR 201730Z 2018/2118 30005KT 9999 BKN040 PROB40 2101/2106 3000 BR BKN004

Meteorológiai megfigyelések és előrejelzések több, mint 4000 repülőtéren (METAR és TAF jelentéseket).

A térképen piros és sárga pontok jelzik az elérhető meteorológiai állomásokat.

Mozgassa az egeret a pont fölött, hogy megjelenjen az állomás neve.

Azután kattintson az időjárási megfigyelések és előrejelzések megtekintéséhez.

A térkép megváltoztatása: kattintson a fekete keresztel jelölt zöld gombra ráközelítéshez, a vonallal jelölt zöld gombra távolításhoz, vagy a zöld nyilakra a szomszédos térképek eléréséhez.


METAR-TAF: